sensor_id;sensor_type;location;lat;lon;timestamp;pressure;altitude;pressure_sealevel;temperature;humidity
19831;BME280;10076;52.008;4.708;2023-01-27T00:02:23;102625.78;;;8.86;100.00
19831;BME280;10076;52.008;4.708;2023-01-27T00:04:48;102634.56;;;8.86;100.00
19831;BME280;10076;52.008;4.708;2023-01-27T00:07:13;102622.59;;;8.76;100.00
19831;BME280;10076;52.008;4.708;2023-01-27T00:09:39;102625.09;;;8.81;100.00
19831;BME280;10076;52.008;4.708;2023-01-27T00:12:06;102618.25;;;8.99;100.00
19831;BME280;10076;52.008;4.708;2023-01-27T00:14:50;102625.00;;;8.84;100.00
19831;BME280;10076;52.008;4.708;2023-01-27T00:17:15;102619.91;;;9.02;100.00
19831;BME280;10076;52.008;4.708;2023-01-27T00:19:40;102618.16;;;8.78;100.00
19831;BME280;10076;52.008;4.708;2023-01-27T00:22:08;102623.09;;;8.87;100.00
19831;BME280;10076;52.008;4.708;2023-01-27T00:24:52;102620.22;;;8.93;100.00
19831;BME280;10076;52.008;4.708;2023-01-27T00:27:17;102618.56;;;8.91;100.00
19831;BME280;10076;52.008;4.708;2023-01-27T00:29:43;102624.28;;;8.79;100.00
19831;BME280;10076;52.008;4.708;2023-01-27T00:32:08;102620.63;;;8.83;100.00
19831;BME280;10076;52.008;4.708;2023-01-27T00:34:52;102625.56;;;8.92;100.00
19831;BME280;10076;52.008;4.708;2023-01-27T00:37:17;102620.97;;;8.98;100.00
19831;BME280;10076;52.008;4.708;2023-01-27T00:39:43;102624.28;;;8.79;100.00
19831;BME280;10076;52.008;4.708;2023-01-27T00:42:08;102625.22;;;8.76;100.00
19831;BME280;10076;52.008;4.708;2023-01-27T00:44:33;102622.88;;;8.69;100.00
19831;BME280;10076;52.008;4.708;2023-01-27T00:46:58;102619.94;;;8.78;100.00
19831;BME280;10076;52.008;4.708;2023-01-27T00:49:24;102619.81;;;8.81;100.00
19831;BME280;10076;52.008;4.708;2023-01-27T00:51:49;102617.25;;;8.79;100.00
19831;BME280;10076;52.008;4.708;2023-01-27T00:54:14;102612.81;;;8.80;100.00
19831;BME280;10076;52.008;4.708;2023-01-27T00:56:40;102612.97;;;8.75;100.00
19831;BME280;10076;52.008;4.708;2023-01-27T00:59:05;102616.06;;;8.88;100.00
19831;BME280;10076;52.008;4.708;2023-01-27T01:01:31;102614.66;;;8.78;100.00
19831;BME280;10076;52.008;4.708;2023-01-27T01:03:58;102625.13;;;8.55;100.00
19831;BME280;10076;52.008;4.708;2023-01-27T01:06:24;102631.50;;;8.48;100.00
19831;BME280;10076;52.008;4.708;2023-01-27T01:08:49;102627.03;;;8.50;100.00
19831;BME280;10076;52.008;4.708;2023-01-27T01:11:17;102627.84;;;8.52;100.00
19831;BME280;10076;52.008;4.708;2023-01-27T01:13:44;102627.16;;;8.47;100.00
19831;BME280;10076;52.008;4.708;2023-01-27T01:16:14;102624.09;;;8.59;100.00
19831;BME280;10076;52.008;4.708;2023-01-27T01:18:40;102629.22;;;8.63;100.00
19831;BME280;10076;52.008;4.708;2023-01-27T01:21:07;102630.06;;;8.64;100.00
19831;BME280;10076;52.008;4.708;2023-01-27T01:23:33;102636.94;;;8.68;100.00
19831;BME280;10076;52.008;4.708;2023-01-27T01:26:01;102631.50;;;8.48;100.00
19831;BME280;10076;52.008;4.708;2023-01-27T01:28:26;102625.34;;;8.49;100.00
19831;BME280;10076;52.008;4.708;2023-01-27T01:30:52;102622.25;;;8.36;100.00
19831;BME280;10076;52.008;4.708;2023-01-27T01:33:17;102628.72;;;8.26;100.00
19831;BME280;10076;52.008;4.708;2023-01-27T01:35:42;102633.25;;;8.49;100.00
19831;BME280;10076;52.008;4.708;2023-01-27T01:38:08;102634.66;;;8.59;100.00
19831;BME280;10076;52.008;4.708;2023-01-27T01:40:41;102642.75;;;8.53;100.00
19831;BME280;10076;52.008;4.708;2023-01-27T01:43:16;102633.75;;;8.60;100.00
19831;BME280;10076;52.008;4.708;2023-01-27T01:48:33;102648.34;;;8.42;100.00
19831;BME280;10076;52.008;4.708;2023-01-27T01:51:37;102655.09;;;8.25;100.00
19831;BME280;10076;52.008;4.708;2023-01-27T01:54:16;102648.00;;;8.27;100.00
19831;BME280;10076;52.008;4.708;2023-01-27T01:56:48;102648.38;;;8.15;100.00
19831;BME280;10076;52.008;4.708;2023-01-27T01:59:28;102645.56;;;8.21;100.00
19831;BME280;10076;52.008;4.708;2023-01-27T02:01:57;102653.72;;;8.12;100.00
19831;BME280;10076;52.008;4.708;2023-01-27T02:04:27;102649.88;;;7.95;100.00
19831;BME280;10076;52.008;4.708;2023-01-27T02:07:23;102643.66;;;7.97;100.00
19831;BME280;10076;52.008;4.708;2023-01-27T02:09:49;102639.75;;;8.10;100.00
19831;BME280;10076;52.008;4.708;2023-01-27T02:12:14;102644.59;;;7.96;100.00
19831;BME280;10076;52.008;4.708;2023-01-27T02:14:40;102649.44;;;8.10;100.00
19831;BME280;10076;52.008;4.708;2023-01-27T02:17:06;102647.31;;;7.93;100.00
19831;BME280;10076;52.008;4.708;2023-01-27T02:22:36;102653.22;;;8.01;100.00
19831;BME280;10076;52.008;4.708;2023-01-27T02:25:12;102651.09;;;8.12;100.00
19831;BME280;10076;52.008;4.708;2023-01-27T02:27:40;102651.84;;;7.88;100.00
19831;BME280;10076;52.008;4.708;2023-01-27T02:30:06;102657.50;;;7.76;100.00
19831;BME280;10076;52.008;4.708;2023-01-27T02:32:31;102661.38;;;7.92;100.00
19831;BME280;10076;52.008;4.708;2023-01-27T02:34:59;102659.44;;;7.99;100.00
19831;BME280;10076;52.008;4.708;2023-01-27T02:37:24;102649.59;;;7.76;100.00
19831;BME280;10076;52.008;4.708;2023-01-27T02:39:50;102657.31;;;7.82;100.00
19831;BME280;10076;52.008;4.708;2023-01-27T02:42:18;102650.25;;;7.83;100.00
19831;BME280;10076;52.008;4.708;2023-01-27T02:44:43;102652.69;;;7.61;100.00
19831;BME280;10076;52.008;4.708;2023-01-27T02:47:08;102651.31;;;7.77;100.00
19831;BME280;10076;52.008;4.708;2023-01-27T02:49:34;102652.50;;;7.95;100.00
19831;BME280;10076;52.008;4.708;2023-01-27T02:51:59;102643.63;;;7.71;100.00
19831;BME280;10076;52.008;4.708;2023-01-27T02:54:25;102651.16;;;7.54;100.00
19831;BME280;10076;52.008;4.708;2023-01-27T02:56:51;102652.47;;;7.69;100.00
19831;BME280;10076;52.008;4.708;2023-01-27T02:59:17;102659.94;;;7.82;100.00
19831;BME280;10076;52.008;4.708;2023-01-27T03:01:42;102658.63;;;7.68;100.00
19831;BME280;10076;52.008;4.708;2023-01-27T03:04:08;102651.41;;;7.74;100.00
19831;BME280;10076;52.008;4.708;2023-01-27T03:06:36;102665.31;;;7.79;100.00
19831;BME280;10076;52.008;4.708;2023-01-27T03:09:01;102670.22;;;7.62;100.00
19831;BME280;10076;52.008;4.708;2023-01-27T03:11:27;102665.56;;;7.70;100.00
19831;BME280;10076;52.008;4.708;2023-01-27T03:14:11;102655.16;;;7.66;100.00
19831;BME280;10076;52.008;4.708;2023-01-27T03:16:36;102661.19;;;7.69;100.00
19831;BME280;10076;52.008;4.708;2023-01-27T03:19:20;102667.47;;;7.65;100.00
19831;BME280;10076;52.008;4.708;2023-01-27T03:21:45;102656.47;;;7.80;100.00
19831;BME280;10076;52.008;4.708;2023-01-27T03:24:15;102664.06;;;7.62;100.00
19831;BME280;10076;52.008;4.708;2023-01-27T03:26:40;102672.91;;;7.59;100.00
19831;BME280;10076;52.008;4.708;2023-01-27T03:29:05;102675.59;;;7.58;100.00
19831;BME280;10076;52.008;4.708;2023-01-27T03:31:49;102671.91;;;7.63;100.00
19831;BME280;10076;52.008;4.708;2023-01-27T03:34:14;102679.59;;;7.69;100.00
19831;BME280;10076;52.008;4.708;2023-01-27T03:36:41;102680.50;;;7.68;100.00
19831;BME280;10076;52.008;4.708;2023-01-27T03:39:25;102673.84;;;7.86;100.00
19831;BME280;10076;52.008;4.708;2023-01-27T03:42:09;102682.69;;;7.54;100.00
19831;BME280;10076;52.008;4.708;2023-01-27T03:44:53;102686.78;;;7.64;100.00
19831;BME280;10076;52.008;4.708;2023-01-27T03:47:37;102689.69;;;7.55;100.00
19831;BME280;10076;52.008;4.708;2023-01-27T03:50:02;102695.22;;;7.45;100.00
19831;BME280;10076;52.008;4.708;2023-01-27T03:52:35;102690.81;;;7.47;100.00
19831;BME280;10076;52.008;4.708;2023-01-27T03:55:00;102696.75;;;7.53;100.00
19831;BME280;10076;52.008;4.708;2023-01-27T03:57:26;102696.91;;;7.48;100.00
19831;BME280;10076;52.008;4.708;2023-01-27T03:59:51;102701.94;;;7.56;100.00
19831;BME280;10076;52.008;4.708;2023-01-27T04:02:16;102705.47;;;7.55;100.00
19831;BME280;10076;52.008;4.708;2023-01-27T04:05:00;102716.69;;;7.60;100.00
19831;BME280;10076;52.008;4.708;2023-01-27T04:07:44;102714.13;;;7.59;100.00
19831;BME280;10076;52.008;4.708;2023-01-27T04:10:10;102719.88;;;7.41;100.00
19831;BME280;10076;52.008;4.708;2023-01-27T04:12:35;102728.09;;;7.29;100.00
19831;BME280;10076;52.008;4.708;2023-01-27T04:15:00;102718.06;;;7.43;100.00
19831;BME280;10076;52.008;4.708;2023-01-27T04:17:25;102726.44;;;7.27;100.00
19831;BME280;10076;52.008;4.708;2023-01-27T04:19:51;102732.41;;;7.32;100.00
19831;BME280;10076;52.008;4.708;2023-01-27T04:22:16;102729.06;;;7.27;100.00
19831;BME280;10076;52.008;4.708;2023-01-27T04:24:42;102742.94;;;7.32;100.00
19831;BME280;10076;52.008;4.708;2023-01-27T04:27:10;102739.75;;;7.19;100.00
19831;BME280;10076;52.008;4.708;2023-01-27T04:29:38;102741.84;;;7.07;100.00
19831;BME280;10076;52.008;4.708;2023-01-27T04:32:06;102751.34;;;7.12;100.00
19831;BME280;10076;52.008;4.708;2023-01-27T04:34:33;102749.06;;;6.99;100.00
19831;BME280;10076;52.008;4.708;2023-01-27T04:36:58;102752.44;;;7.04;100.00
19831;BME280;10076;52.008;4.708;2023-01-27T04:39:24;102751.59;;;7.02;100.00
19831;BME280;10076;52.008;4.708;2023-01-27T04:41:50;102749.03;;;7.00;100.00
19831;BME280;10076;52.008;4.708;2023-01-27T04:44:16;102748.72;;;7.11;100.00
19831;BME280;10076;52.008;4.708;2023-01-27T04:46:44;102748.66;;;7.14;100.00
19831;BME280;10076;52.008;4.708;2023-01-27T04:49:09;102758.06;;;7.22;100.00
19831;BME280;10076;52.008;4.708;2023-01-27T04:51:35;102747.66;;;6.86;100.00
19831;BME280;10076;52.008;4.708;2023-01-27T04:54:00;102754.31;;;6.99;100.00
19831;BME280;10076;52.008;4.708;2023-01-27T04:56:33;102758.66;;;7.00;100.00
19831;BME280;10076;52.008;4.708;2023-01-27T04:59:04;102753.81;;;7.17;100.00
19831;BME280;10076;52.008;4.708;2023-01-27T05:01:30;102750.97;;;6.92;100.00
19831;BME280;10076;52.008;4.708;2023-01-27T05:03:56;102756.84;;;7.02;100.00
19831;BME280;10076;52.008;4.708;2023-01-27T05:06:22;102750.63;;;7.06;100.00
19831;BME280;10076;52.008;4.708;2023-01-27T05:08:48;102753.81;;;7.17;100.00
19831;BME280;10076;52.008;4.708;2023-01-27T05:11:14;102760.75;;;7.19;100.00
19831;BME280;10076;52.008;4.708;2023-01-27T05:13:39;102760.34;;;7.02;100.00
19831;BME280;10076;52.008;4.708;2023-01-27T05:18:40;102757.97;;;7.27;100.00
19831;BME280;10076;52.008;4.708;2023-01-27T05:21:07;102757.53;;;7.10;100.00
19831;BME280;10076;52.008;4.708;2023-01-27T05:23:33;102752.97;;;7.16;100.00
19831;BME280;10076;52.008;4.708;2023-01-27T05:28:31;102759.91;;;7.19;100.00
19831;BME280;10076;52.008;4.708;2023-01-27T05:31:04;102768.19;;;7.04;100.00
19831;BME280;10076;52.008;4.708;2023-01-27T05:33:30;102764.28;;;7.20;100.00
19831;BME280;10076;52.008;4.708;2023-01-27T05:36:01;102768.16;;;7.37;100.00
19831;BME280;10076;52.008;4.708;2023-01-27T05:38:27;102764.69;;;7.37;100.00
19831;BME280;10076;52.008;4.708;2023-01-27T05:40:59;102772.47;;;7.40;100.00
19831;BME280;10076;52.008;4.708;2023-01-27T05:43:27;102776.34;;;7.27;100.00
19831;BME280;10076;52.008;4.708;2023-01-27T05:45:52;102783.44;;;7.23;100.00
19831;BME280;10076;52.008;4.708;2023-01-27T05:48:18;102782.19;;;7.38;100.00
19831;BME280;10076;52.008;4.708;2023-01-27T05:50:52;102788.44;;;7.32;100.00
19831;BME280;10076;52.008;4.708;2023-01-27T05:53:18;102786.28;;;7.48;100.00
19831;BME280;10076;52.008;4.708;2023-01-27T05:55:43;102784.50;;;7.16;100.00
19831;BME280;10076;52.008;4.708;2023-01-27T05:58:09;102773.94;;;7.18;100.00
19831;BME280;10076;52.008;4.708;2023-01-27T06:00:34;102784.38;;;7.21;100.00
19831;BME280;10076;52.008;4.708;2023-01-27T06:02:59;102783.59;;;7.17;100.00
19831;BME280;10076;52.008;4.708;2023-01-27T06:05:24;102787.03;;;7.19;100.00
19831;BME280;10076;52.008;4.708;2023-01-27T06:07:50;102789.97;;;7.41;100.00
19831;BME280;10076;52.008;4.708;2023-01-27T06:10:15;102794.75;;;7.25;100.00
19831;BME280;10076;52.008;4.708;2023-01-27T06:12:41;102787.81;;;7.24;100.00
19831;BME280;10076;52.008;4.708;2023-01-27T06:15:06;102793.91;;;7.25;100.00
19831;BME280;10076;52.008;4.708;2023-01-27T06:17:32;102790.34;;;7.27;100.00
19831;BME280;10076;52.008;4.708;2023-01-27T06:19:58;102787.81;;;7.23;100.00
19831;BME280;10076;52.008;4.708;2023-01-27T06:22:23;102791.22;;;7.26;100.00
19831;BME280;10076;52.008;4.708;2023-01-27T06:24:48;102801.69;;;7.29;100.00
19831;BME280;10076;52.008;4.708;2023-01-27T06:27:14;102800.09;;;7.22;100.00
19831;BME280;10076;52.008;4.708;2023-01-27T06:29:39;102801.69;;;7.29;100.00
19831;BME280;10076;52.008;4.708;2023-01-27T06:32:04;102798.94;;;7.32;100.00
19831;BME280;10076;52.008;4.708;2023-01-27T06:34:29;102800.38;;;7.45;100.00
19831;BME280;10076;52.008;4.708;2023-01-27T06:36:55;102793.31;;;7.46;100.00
19831;BME280;10076;52.008;4.708;2023-01-27T06:39:20;102802.16;;;7.45;100.00
19831;BME280;10076;52.008;4.708;2023-01-27T06:41:45;102801.38;;;7.40;100.00
19831;BME280;10076;52.008;4.708;2023-01-27T06:44:11;102810.19;;;7.37;100.00
19831;BME280;10076;52.008;4.708;2023-01-27T06:46:36;102813.03;;;7.30;100.00
19831;BME280;10076;52.008;4.708;2023-01-27T06:49:01;102812.38;;;7.22;100.00
19831;BME280;10076;52.008;4.708;2023-01-27T06:51:27;102817.31;;;7.34;100.00
19831;BME280;10076;52.008;4.708;2023-01-27T06:53:52;102816.34;;;7.38;100.00
19831;BME280;10076;52.008;4.708;2023-01-27T06:56:17;102813.97;;;7.27;100.00
19831;BME280;10076;52.008;4.708;2023-01-27T06:58:43;102819.34;;;7.24;100.00
19831;BME280;10076;52.008;4.708;2023-01-27T07:01:08;102818.59;;;7.18;100.00
19831;BME280;10076;52.008;4.708;2023-01-27T07:03:33;102821.97;;;7.23;100.00
19831;BME280;10076;52.008;4.708;2023-01-27T07:05:59;102814.34;;;7.14;100.00
19831;BME280;10076;52.008;4.708;2023-01-27T07:08:24;102817.81;;;7.14;100.00
19831;BME280;10076;52.008;4.708;2023-01-27T07:10:49;102819.75;;;7.08;100.00
19831;BME280;10076;52.008;4.708;2023-01-27T07:13:15;102817.03;;;7.11;100.00
19831;BME280;10076;52.008;4.708;2023-01-27T07:15:40;102825.06;;;7.05;100.00
19831;BME280;10076;52.008;4.708;2023-01-27T07:18:06;102814.84;;;6.94;100.00
19831;BME280;10076;52.008;4.708;2023-01-27T07:20:32;102832.03;;;7.07;100.00
19831;BME280;10076;52.008;4.708;2023-01-27T07:23:04;102827.38;;;7.17;100.00
19831;BME280;10076;52.008;4.708;2023-01-27T07:25:31;102827.44;;;7.15;100.00
19831;BME280;10076;52.008;4.708;2023-01-27T07:27:57;102821.44;;;7.10;100.00
19831;BME280;10076;52.008;4.708;2023-01-27T07:30:23;102824.00;;;7.12;100.00
19831;BME280;10076;52.008;4.708;2023-01-27T07:32:49;102830.94;;;7.16;100.00
19831;BME280;10076;52.008;4.708;2023-01-27T07:35:15;102833.81;;;7.05;100.00
19831;BME280;10076;52.008;4.708;2023-01-27T07:37:40;102829.00;;;6.87;100.00
19831;BME280;10076;52.008;4.708;2023-01-27T07:40:06;102834.66;;;7.06;100.00
19831;BME280;10076;52.008;4.708;2023-01-27T07:42:32;102844.06;;;7.16;100.00
19831;BME280;10076;52.008;4.708;2023-01-27T07:44:57;102847.06;;;7.01;100.00
19831;BME280;10076;52.008;4.708;2023-01-27T07:47:23;102848.78;;;7.02;100.00
19831;BME280;10076;52.008;4.708;2023-01-27T07:49:48;102848.22;;;6.88;100.00
19831;BME280;10076;52.008;4.708;2023-01-27T07:52:14;102859.66;;;6.87;100.00
19831;BME280;10076;52.008;4.708;2023-01-27T07:54:39;102863.47;;;6.74;100.00
19831;BME280;10076;52.008;4.708;2023-01-27T07:57:04;102872.00;;;6.82;100.00
19831;BME280;10076;52.008;4.708;2023-01-27T07:59:29;102858.16;;;6.76;100.00
19831;BME280;10076;52.008;4.708;2023-01-27T08:01:55;102864.25;;;6.78;100.00
19831;BME280;10076;52.008;4.708;2023-01-27T08:04:20;102869.56;;;6.75;100.00
19831;BME280;10076;52.008;4.708;2023-01-27T08:06:45;102867.69;;;6.80;100.00
19831;BME280;10076;52.008;4.708;2023-01-27T08:09:11;102869.88;;;6.99;100.00
19831;BME280;10076;52.008;4.708;2023-01-27T08:11:36;102874.94;;;7.06;100.00
19831;BME280;10076;52.008;4.708;2023-01-27T08:14:01;102879.03;;;7.18;100.00
19831;BME280;10076;52.008;4.708;2023-01-27T08:16:27;102881.16;;;7.02;100.00
19831;BME280;10076;52.008;4.708;2023-01-27T08:18:53;102873.72;;;7.19;100.00
19831;BME280;10076;52.008;4.708;2023-01-27T08:21:18;102873.81;;;7.16;100.00
19831;BME280;10076;52.008;4.708;2023-01-27T08:23:44;102878.13;;;7.19;100.00
19831;BME280;10076;52.008;4.708;2023-01-27T08:26:09;102877.63;;;7.38;100.00
19831;BME280;10076;52.008;4.708;2023-01-27T08:28:37;102891.59;;;7.40;100.00
19831;BME280;10076;52.008;4.708;2023-01-27T08:33:33;102888.78;;;7.13;100.00
19831;BME280;10076;52.008;4.708;2023-01-27T08:36:09;102890.38;;;7.20;100.00
19831;BME280;10076;52.008;4.708;2023-01-27T08:38:35;102882.84;;;7.40;100.00
19831;BME280;10076;52.008;4.708;2023-01-27T08:41:13;102887.00;;;7.50;100.00
19831;BME280;10076;52.008;4.708;2023-01-27T08:43:38;102889.53;;;7.53;100.00
19831;BME280;10076;52.008;4.708;2023-01-27T08:46:05;102886.03;;;7.52;100.00
19831;BME280;10076;52.008;4.708;2023-01-27T08:48:31;102892.91;;;7.57;100.00
19831;BME280;10076;52.008;4.708;2023-01-27T08:50:57;102891.25;;;7.53;100.00
19831;BME280;10076;52.008;4.708;2023-01-27T08:53:24;102887.41;;;7.66;100.00
19831;BME280;10076;52.008;4.708;2023-01-27T08:55:49;102891.53;;;7.76;100.00
19831;BME280;10076;52.008;4.708;2023-01-27T08:58:15;102892.09;;;7.87;100.00
19831;BME280;10076;52.008;4.708;2023-01-27T09:00:41;102896.34;;;7.93;100.00
19831;BME280;10076;52.008;4.708;2023-01-27T09:03:06;102900.88;;;7.86;100.00
19831;BME280;10076;52.008;4.708;2023-01-27T09:05:34;102900.22;;;8.10;100.00
19831;BME280;10076;52.008;4.708;2023-01-27T09:08:00;102892.28;;;8.72;100.00
19831;BME280;10076;52.008;4.708;2023-01-27T09:10:25;102897.38;;;9.05;100.00
19831;BME280;10076;52.008;4.708;2023-01-27T09:12:50;102899.03;;;9.34;100.00
19831;BME280;10076;52.008;4.708;2023-01-27T09:15:15;102902.13;;;10.45;100.00
19831;BME280;10076;52.008;4.708;2023-01-27T09:17:41;102897.03;;;11.49;100.00
19831;BME280;10076;52.008;4.708;2023-01-27T09:20:07;102895.06;;;11.11;100.00
19831;BME280;10076;52.008;4.708;2023-01-27T09:22:33;102895.00;;;10.47;100.00
19831;BME280;10076;52.008;4.708;2023-01-27T09:25:00;102903.75;;;10.25;100.00
19831;BME280;10076;52.008;4.708;2023-01-27T09:27:26;102904.59;;;10.49;100.00
19831;BME280;10076;52.008;4.708;2023-01-27T09:29:51;102899.88;;;11.66;100.00
19831;BME280;10076;52.008;4.708;2023-01-27T09:32:17;102906.81;;;12.83;100.00
19831;BME280;10076;52.008;4.708;2023-01-27T09:34:42;102909.00;;;13.47;100.00
19831;BME280;10076;52.008;4.708;2023-01-27T09:37:10;102916.47;;;13.04;100.00
19831;BME280;10076;52.008;4.708;2023-01-27T09:39:44;102897.66;;;12.71;100.00
19831;BME280;10076;52.008;4.708;2023-01-27T09:42:40;102905.28;;;12.40;100.00
19831;BME280;10076;52.008;4.708;2023-01-27T09:45:27;102898.50;;;12.72;100.00
19831;BME280;10076;52.008;4.708;2023-01-27T09:48:04;102906.47;;;12.72;100.00
19831;BME280;10076;52.008;4.708;2023-01-27T09:56:14;102896.59;;;11.59;100.00
19831;BME280;10076;52.008;4.708;2023-01-27T10:02:29;102896.41;;;12.23;100.00
19831;BME280;10076;52.008;4.708;2023-01-27T10:07:36;102897.56;;;11.35;100.00
19831;BME280;10076;52.008;4.708;2023-01-27T10:10:25;102900.50;;;11.51;100.00
19831;BME280;10076;52.008;4.708;2023-01-27T10:13:02;102902.66;;;11.20;100.00
19831;BME280;10076;52.008;4.708;2023-01-27T10:20:54;102912.00;;;13.04;100.00
19831;BME280;10076;52.008;4.708;2023-01-27T10:26:38;102909.47;;;14.54;100.00
19831;BME280;10076;52.008;4.708;2023-01-27T10:29:09;102919.47;;;14.34;100.00
19831;BME280;10076;52.008;4.708;2023-01-27T10:31:40;102909.03;;;14.47;100.00
19831;BME280;10076;52.008;4.708;2023-01-27T10:34:35;102918.59;;;14.81;100.00
19831;BME280;10076;52.008;4.708;2023-01-27T10:42:38;102923.88;;;18.68;99.41
19831;BME280;10076;52.008;4.708;2023-01-27T10:48:32;102913.13;;;19.28;86.29
19831;BME280;10076;52.008;4.708;2023-01-27T10:50:56;102926.66;;;17.65;91.21
19831;BME280;10076;52.008;4.708;2023-01-27T10:53:31;102915.00;;;16.02;100.00
19831;BME280;10076;52.008;4.708;2023-01-27T10:58:54;102905.00;;;14.23;100.00
19831;BME280;10076;52.008;4.708;2023-01-27T11:01:32;102913.97;;;13.36;100.00
19831;BME280;10076;52.008;4.708;2023-01-27T11:06:34;102905.16;;;12.05;100.00
19831;BME280;10076;52.008;4.708;2023-01-27T11:09:10;102903.22;;;11.89;100.00
19831;BME280;10076;52.008;4.708;2023-01-27T11:11:38;102896.28;;;11.45;100.00
19831;BME280;10076;52.008;4.708;2023-01-27T11:14:28;102894.56;;;11.44;100.00
19831;BME280;10076;52.008;4.708;2023-01-27T11:17:02;102901.03;;;11.16;100.00
19831;BME280;10076;52.008;4.708;2023-01-27T11:20:00;102894.34;;;11.29;100.00
19831;BME280;10076;52.008;4.708;2023-01-27T11:22:34;102893.41;;;11.08;100.00
19831;BME280;10076;52.008;4.708;2023-01-27T11:28:03;102887.88;;;10.93;100.00
19831;BME280;10076;52.008;4.708;2023-01-27T11:30:37;102896.03;;;10.87;100.00
19831;BME280;10076;52.008;4.708;2023-01-27T11:33:24;102895.59;;;10.76;100.00
19831;BME280;10076;52.008;4.708;2023-01-27T11:35:52;102890.34;;;10.53;100.00
19831;BME280;10076;52.008;4.708;2023-01-27T11:38:20;102886.41;;;10.63;100.00
19831;BME280;10076;52.008;4.708;2023-01-27T11:40:48;102891.16;;;10.55;100.00
19831;BME280;10076;52.008;4.708;2023-01-27T11:43:23;102883.78;;;10.40;100.00
19831;BME280;10076;52.008;4.708;2023-01-27T11:45:54;102886.84;;;10.30;100.00
19831;BME280;10076;52.008;4.708;2023-01-27T11:48:22;102882.53;;;10.28;100.00
19831;BME280;10076;52.008;4.708;2023-01-27T11:50:47;102885.72;;;10.13;100.00
19831;BME280;10076;52.008;4.708;2023-01-27T11:55:50;102877.81;;;10.13;100.00
19831;BME280;10076;52.008;4.708;2023-01-27T12:01:10;102874.88;;;9.96;100.00
19831;BME280;10076;52.008;4.708;2023-01-27T12:03:57;102879.91;;;9.79;100.00
19831;BME280;10076;52.008;4.708;2023-01-27T12:06:43;102878.31;;;9.73;100.00
19831;BME280;10076;52.008;4.708;2023-01-27T12:09:40;102865.53;;;9.63;100.00
19831;BME280;10076;52.008;4.708;2023-01-27T12:14:59;102869.22;;;9.58;100.00
19831;BME280;10076;52.008;4.708;2023-01-27T12:19:54;102868.03;;;9.42;100.00
19831;BME280;10076;52.008;4.708;2023-01-27T12:22:36;102868.56;;;9.51;100.00
19831;BME280;10076;52.008;4.708;2023-01-27T12:25:05;102862.94;;;9.62;100.00
19831;BME280;10076;52.008;4.708;2023-01-27T12:27:40;102871.06;;;9.56;100.00
19831;BME280;10076;52.008;4.708;2023-01-27T12:30:20;102864.34;;;9.47;100.00
19831;BME280;10076;52.008;4.708;2023-01-27T12:32:46;102875.53;;;9.54;100.00
19831;BME280;10076;52.008;4.708;2023-01-27T12:35:28;102864.00;;;9.56;100.00
19831;BME280;10076;52.008;4.708;2023-01-27T12:38:11;102861.69;;;9.47;100.00
19831;BME280;10076;52.008;4.708;2023-01-27T12:40:44;102860.97;;;9.42;100.00
19831;BME280;10076;52.008;4.708;2023-01-27T12:43:17;102861.13;;;9.38;100.00
19831;BME280;10076;52.008;4.708;2023-01-27T12:48:43;102855.06;;;9.60;100.00
19831;BME280;10076;52.008;4.708;2023-01-27T12:51:36;102851.28;;;9.43;100.00
19831;BME280;10076;52.008;4.708;2023-01-27T12:54:27;102851.72;;;9.55;100.00
19831;BME280;10076;52.008;4.708;2023-01-27T12:56:55;102857.91;;;9.54;100.00
19831;BME280;10076;52.008;4.708;2023-01-27T12:59:25;102852.63;;;9.54;100.00
19831;BME280;10076;52.008;4.708;2023-01-27T13:04:24;102851.16;;;9.47;100.00
19831;BME280;10076;52.008;4.708;2023-01-27T13:07:04;102851.09;;;9.49;100.00
19831;BME280;10076;52.008;4.708;2023-01-27T13:09:46;102856.97;;;9.31;100.00
19831;BME280;10076;52.008;4.708;2023-01-27T13:15:23;102847.41;;;9.28;100.00
19831;BME280;10076;52.008;4.708;2023-01-27T13:17:51;102849.72;;;9.11;100.00
19831;BME280;10076;52.008;4.708;2023-01-27T13:20:31;102847.38;;;9.02;100.00
19831;BME280;10076;52.008;4.708;2023-01-27T13:23:05;102842.81;;;9.07;100.00
19831;BME280;10076;52.008;4.708;2023-01-27T13:31:06;102854.50;;;9.00;100.00
19831;BME280;10076;52.008;4.708;2023-01-27T13:33:42;102843.69;;;9.08;100.00
19831;BME280;10076;52.008;4.708;2023-01-27T13:36:15;102850.91;;;9.01;100.00
19831;BME280;10076;52.008;4.708;2023-01-27T13:41:51;102847.13;;;9.10;100.00
19831;BME280;10076;52.008;4.708;2023-01-27T13:44:38;102851.25;;;9.18;100.00
19831;BME280;10076;52.008;4.708;2023-01-27T13:47:13;102852.81;;;8.98;100.00
19831;BME280;10076;52.008;4.708;2023-01-27T13:49:42;102848.91;;;9.09;100.00
19831;BME280;10076;52.008;4.708;2023-01-27T13:52:10;102851.66;;;9.06;100.00
19831;BME280;10076;52.008;4.708;2023-01-27T13:54:35;102858.53;;;9.10;100.00
19831;BME280;10076;52.008;4.708;2023-01-27T14:03:02;102863.94;;;9.06;100.00
19831;BME280;10076;52.008;4.708;2023-01-27T14:09:11;102856.50;;;8.93;100.00
19831;BME280;10076;52.008;4.708;2023-01-27T14:14:57;102842.94;;;9.04;100.00
19831;BME280;10076;52.008;4.708;2023-01-27T14:17:38;102850.66;;;8.83;100.00
19831;BME280;10076;52.008;4.708;2023-01-27T14:38:08;102885.84;;;8.81;100.00
19831;BME280;10076;52.008;4.708;2023-01-27T14:43:01;102881.28;;;8.58;100.00
19831;BME280;10076;52.008;4.708;2023-01-27T14:45:33;102883.78;;;8.63;100.00
19831;BME280;10076;52.008;4.708;2023-01-27T14:51:05;102884.00;;;8.55;100.00
19831;BME280;10076;52.008;4.708;2023-01-27T14:53:51;102891.13;;;8.52;100.00
19831;BME280;10076;52.008;4.708;2023-01-27T15:01:55;102900.94;;;8.47;100.00